Time;durP1;ratioP1;P1;durP2;ratioP2;P2;SDS_P1;SDS_P2;PMS_P1;PMS_P2;Temp;Humidity;BMP_temperature;BMP_pressure;BME280_temperature;BME280_humidity;BME280_pressure;Samples;Min_cycle;Max_cycle;Signal;HPM_P1;HPM_P2
2023/06/06 00:01:52;;;;;;;7.15;4.40;;;;;;;22.39;43.17;101971.41;5071682;28;20036;-65
2023/06/06 00:04:18;;;;;;;7.07;4.27;;;;;;;22.40;42.77;101977.59;5070852;28;20490;-65
2023/06/06 00:06:44;;;;;;;7.83;4.07;;;;;;;22.38;42.68;101967.09;5070961;28;20265;-65
2023/06/06 00:09:13;;;;;;;8.63;4.32;;;;;;;22.39;42.97;101975.91;5070881;28;20294;-67
2023/06/06 00:11:39;;;;;;;6.47;4.20;;;;;;;22.39;42.67;101976.72;5070336;28;20085;-66
2023/06/06 00:14:07;;;;;;;6.72;4.35;;;;;;;22.39;42.67;101975.91;5070285;28;20036;-66
2023/06/06 00:16:34;;;;;;;8.20;4.20;;;;;;;22.38;42.86;101974.19;5070634;28;20059;-67
2023/06/06 00:19:00;;;;;;;6.20;4.00;;;;;;;22.35;42.97;101977.97;5071096;28;20032;-66
2023/06/06 00:21:27;;;;;;;7.05;4.10;;;;;;;22.37;42.64;101973.38;5070474;28;20042;-65
2023/06/06 00:23:54;;;;;;;6.45;4.07;;;;;;;22.38;42.90;101969.75;5070555;28;20456;-66
2023/06/06 00:26:20;;;;;;;6.72;4.28;;;;;;;22.37;42.43;101975.19;5070923;28;20060;-66
2023/06/06 00:28:46;;;;;;;6.72;4.05;;;;;;;22.34;42.58;101970.13;5071405;28;20064;-65
2023/06/06 00:31:11;;;;;;;7.50;4.25;;;;;;;22.38;42.44;101976.84;5070545;28;20468;-65
2023/06/06 00:33:36;;;;;;;6.57;4.03;;;;;;;22.37;42.57;101972.53;5071104;28;20821;-66
2023/06/06 00:36:02;;;;;;;6.90;4.23;;;;;;;22.37;42.80;101975.19;5070166;28;20085;-66
2023/06/06 00:38:28;;;;;;;6.07;4.05;;;;;;;22.36;42.51;101971.66;5070550;28;20310;-67
2023/06/06 00:40:53;;;;;;;6.55;3.97;;;;;;;22.36;42.58;101978.81;5070551;28;20032;-65
2023/06/06 00:43:19;;;;;;;5.88;3.97;;;;;;;22.35;42.28;101967.34;5070696;28;20024;-65
2023/06/06 00:45:44;;;;;;;7.53;4.07;;;;;;;22.33;42.68;101971.91;5070797;28;20485;-65
2023/06/06 00:48:10;;;;;;;7.13;4.55;;;;;;;22.33;42.61;101966.59;5070342;28;20122;-66
2023/06/06 00:50:36;;;;;;;6.78;4.30;;;;;;;22.34;42.60;101972.78;5070267;28;20080;-66
2023/06/06 00:53:03;;;;;;;6.60;4.50;;;;;;;22.32;42.21;101969.38;5070633;28;20028;-65
2023/06/06 00:55:31;;;;;;;7.78;4.18;;;;;;;22.32;42.50;101972.03;5070700;28;20078;-67
2023/06/06 00:57:59;;;;;;;6.30;3.60;;;;;;;22.32;42.71;101972.91;5071438;28;20089;-64
2023/06/06 01:00:27;;;;;;;6.28;4.47;;;;;;;22.32;42.14;101969.38;5070474;28;20035;-66
2023/06/06 01:02:53;;;;;;;7.80;3.95;;;;;;;22.31;42.22;101965.91;5070401;28;20028;-66
2023/06/06 01:05:19;;;;;;;7.00;3.97;;;;;;;22.30;42.00;101964.19;5070311;28;20503;-64
2023/06/06 01:07:47;;;;;;;6.35;4.18;;;;;;;22.32;42.28;101970.25;5070566;28;20051;-66
2023/06/06 01:10:14;;;;;;;5.88;3.90;;;;;;;22.31;42.20;101968.56;5070215;28;20032;-66
2023/06/06 01:12:55;;;;;;;5.97;3.90;;;;;;;22.27;42.45;101964.41;5070570;28;20442;-66
2023/06/06 01:15:36;;;;;;;5.97;4.18;;;;;;;22.28;42.55;101966.94;5069979;28;20064;-65
2023/06/06 01:18:03;;;;;;;6.63;4.15;;;;;;;22.28;42.05;101966.13;5070063;28;20119;-66
2023/06/06 01:20:29;;;;;;;9.68;4.28;;;;;;;22.27;42.17;101967.94;5070344;28;20024;-67
2023/06/06 01:22:56;;;;;;;7.25;4.63;;;;;;;22.27;42.08;101970.59;5072598;28;20033;-66
2023/06/06 01:25:23;;;;;;;6.38;4.30;;;;;;;22.27;41.98;101959.09;5074474;28;20031;-64
2023/06/06 01:27:53;;;;;;;5.55;3.92;;;;;;;22.27;41.98;101959.09;5074298;28;20040;-65
2023/06/06 01:30:23;;;;;;;6.53;4.18;;;;;;;22.27;42.04;101967.94;5073289;28;20020;-65
2023/06/06 01:33:28;;;;;;;6.43;4.15;;;;;;;22.26;42.13;101965.41;5073222;28;20036;-64
2023/06/06 01:36:02;;;;;;;;;;;;;;;22.33;41.86;101971.91;5061040;28;20179;-67
2023/06/06 01:38:33;;;;;;;6.90;4.45;;;;;;;22.33;42.16;101965.78;5073919;28;20391;-66
2023/06/06 01:41:01;;;;;;;6.80;4.65;;;;;;;22.27;41.78;101962.63;5072812;28;20052;-66
2023/06/06 01:43:32;;;;;;;5.70;4.03;;;;;;;22.25;41.80;101964.53;5073541;28;20392;-67
2023/06/06 01:45:58;;;;;;;5.93;4.15;;;;;;;22.25;41.85;101969.00;5073246;28;20105;-67
2023/06/06 01:48:24;;;;;;;7.97;4.03;;;;;;;22.24;42.17;101976.16;5073530;28;20028;-66
2023/06/06 01:50:50;;;;;;;6.30;4.20;;;;;;;22.24;42.10;101964.69;5073229;28;20035;-65
2023/06/06 01:53:15;;;;;;;5.97;4.07;;;;;;;22.25;41.91;101963.69;5073373;28;20032;-66
2023/06/06 01:55:41;;;;;;;6.63;4.30;;;;;;;22.25;41.85;101975.16;5073662;28;20032;-66
2023/06/06 01:58:07;;;;;;;6.68;4.30;;;;;;;22.24;42.19;101967.34;5072985;28;20121;-66
2023/06/06 02:00:32;;;;;;;6.35;4.18;;;;;;;22.22;41.89;101963.94;5074096;28;20032;-66
2023/06/06 02:02:57;;;;;;;5.73;3.97;;;;;;;22.23;42.01;101966.47;5073166;28;20998;-66
2023/06/06 02:05:23;;;;;;;6.00;4.20;;;;;;;22.23;41.81;101976.28;5073167;28;20325;-66
2023/06/06 02:07:49;;;;;;;6.40;4.03;;;;;;;22.21;41.70;101959.63;5073273;28;21207;-66
2023/06/06 02:10:15;;;;;;;6.05;4.25;;;;;;;22.22;41.96;101970.13;5073391;28;20036;-66
2023/06/06 02:12:41;;;;;;;8.57;4.15;;;;;;;22.21;41.62;101971.09;5072855;28;20032;-66
2023/06/06 02:15:07;;;;;;;7.20;4.35;;;;;;;22.21;41.75;101965.78;5072579;28;20048;-65
2023/06/06 02:17:33;;;;;;;5.90;3.88;;;;;;;22.21;41.60;101963.13;5072966;28;20028;-65
2023/06/06 02:19:58;;;;;;;6.07;4.25;;;;;;;22.20;41.33;101964.06;5073195;28;20028;-66
2023/06/06 02:22:24;;;;;;;7.82;4.30;;;;;;;22.20;41.62;101966.72;5072244;28;20234;-67
2023/06/06 02:24:52;;;;;;;6.10;3.95;;;;;;;22.20;41.49;101961.41;5072406;28;20490;-65
2023/06/06 02:27:17;;;;;;;5.63;4.10;;;;;;;22.17;41.53;101963.50;5072230;28;20040;-65
2023/06/06 02:29:43;;;;;;;6.03;4.18;;;;;;;22.20;41.64;101966.72;5072119;28;20465;-65
2023/06/06 02:32:10;;;;;;;6.47;4.10;;;;;;;22.18;41.59;101973.16;5072709;28;20028;-66
2023/06/06 02:34:35;;;;;;;5.68;3.65;;;;;;;22.19;41.67;101977.47;5072418;28;20280;-67
2023/06/06 02:37:02;;;;;;;7.72;4.90;;;;;;;22.19;41.62;101964.19;5072749;28;20036;-66
2023/06/06 02:39:27;;;;;;;5.47;3.78;;;;;;;22.19;41.12;101972.16;5072939;28;20085;-66
2023/06/06 02:41:52;;;;;;;6.47;3.80;;;;;;;22.15;41.39;101962.78;5072033;28;20036;-66
2023/06/06 02:44:19;;;;;;;5.57;3.85;;;;;;;22.18;41.31;101966.03;5072688;28;20296;-67
2023/06/06 02:46:45;;;;;;;6.45;3.83;;;;;;;22.16;41.53;101964.44;5072295;28;20059;-67
2023/06/06 02:49:10;;;;;;;6.35;3.95;;;;;;;22.16;41.50;101965.31;5073032;28;20110;-65
2023/06/06 02:51:36;;;;;;;6.30;3.90;;;;;;;22.15;41.60;101965.44;5071738;28;20051;-66
2023/06/06 02:54:02;;;;;;;6.68;4.38;;;;;;;22.16;41.31;101969.75;5071984;28;20461;-65
2023/06/06 02:56:27;;;;;;;5.65;3.85;;;;;;;22.16;41.29;101967.09;5072222;28;20090;-65
2023/06/06 02:58:53;;;;;;;5.47;3.87;;;;;;;22.14;41.06;101964.56;5072457;28;20469;-67
2023/06/06 03:01:20;;;;;;;9.70;4.13;;;;;;;22.15;41.14;101970.75;5072073;28;20252;-65
2023/06/06 03:03:47;;;;;;;6.85;4.00;;;;;;;22.16;41.39;101973.28;5071695;28;20476;-65
2023/06/06 03:06:15;;;;;;;6.40;4.18;;;;;;;22.16;41.13;101978.59;5072188;28;20032;-66
2023/06/06 03:08:40;;;;;;;5.93;3.78;;;;;;;22.13;41.04;101973.53;5071553;28;20035;-66
2023/06/06 03:11:06;;;;;;;6.93;4.18;;;;;;;22.14;41.17;101977.00;5071787;28;20032;-67
2023/06/06 03:13:31;;;;;;;6.70;4.65;;;;;;;22.15;40.96;101976.88;5072086;28;20032;-66
2023/06/06 03:15:56;;;;;;;5.90;3.80;;;;;;;22.13;41.14;101970.88;5071428;28;20052;-67
2023/06/06 03:18:23;;;;;;;6.10;4.00;;;;;;;22.12;41.02;101969.16;5072394;28;20595;-65
2023/06/06 03:20:51;;;;;;;5.88;4.15;;;;;;;22.13;41.17;101972.66;5071546;28;20034;-68
2023/06/06 03:23:17;;;;;;;6.47;4.30;;;;;;;22.13;41.12;101970.00;5071675;28;20876;-66
2023/06/06 03:25:43;;;;;;;7.32;4.35;;;;;;;22.12;41.21;101968.34;5071780;28;20119;-65
2023/06/06 03:28:10;;;;;;;6.45;4.18;;;;;;;22.10;40.99;101966.63;5071570;28;20028;-67
2023/06/06 03:30:35;;;;;;;7.03;3.78;;;;;;;22.12;40.99;101973.66;5071713;28;20568;-66
2023/06/06 03:33:03;;;;;;;6.53;4.35;;;;;;;22.10;40.83;101974.59;5070861;28;20054;-65
2023/06/06 03:35:32;;;;;;;6.28;4.13;;;;;;;22.12;41.14;101971.00;5071438;28;20388;-66
2023/06/06 03:37:58;;;;;;;5.28;3.95;;;;;;;22.12;41.06;101971.00;5071392;28;20044;-66
2023/06/06 03:40:24;;;;;;;8.52;4.07;;;;;;;22.12;41.06;101981.59;5071710;28;20080;-65
2023/06/06 03:42:50;;;;;;;6.50;4.32;;;;;;;22.10;40.69;101974.59;5071225;28;20064;-66
2023/06/06 03:45:20;;;;;;;6.53;3.90;;;;;;;22.10;40.96;101973.78;5070863;28;20490;-67
2023/06/06 03:47:45;;;;;;;5.82;3.45;;;;;;;22.09;41.02;101972.06;5071732;28;20475;-65
2023/06/06 03:50:11;;;;;;;6.22;3.83;;;;;;;22.10;40.96;101979.91;5071365;28;20032;-67
2023/06/06 03:52:38;;;;;;;5.43;3.75;;;;;;;22.08;40.87;101976.53;5070717;28;20147;-65
2023/06/06 03:55:03;;;;;;;6.72;3.70;;;;;;;22.07;40.72;101974.84;5071348;28;20024;-66
2023/06/06 03:57:29;;;;;;;6.85;3.97;;;;;;;22.07;40.87;101977.50;5071014;28;20062;-67
2023/06/06 03:59:55;;;;;;;5.88;3.88;;;;;;;22.07;40.90;101984.63;5071195;28;20036;-66
2023/06/06 04:02:20;;;;;;;6.32;3.78;;;;;;;22.06;40.99;101983.78;5070581;28;20032;-66
2023/06/06 04:04:50;;;;;;;6.60;4.10;;;;;;;22.08;41.02;101986.31;5071345;28;20487;-67
2023/06/06 04:07:15;;;;;;;7.22;4.15;;;;;;;22.06;40.64;101985.59;5071526;28;20029;-66
2023/06/06 04:09:41;;;;;;;6.13;3.67;;;;;;;22.07;40.62;101979.31;5069939;28;20040;-65
2023/06/06 04:12:07;;;;;;;6.75;3.90;;;;;;;22.07;40.57;101981.97;5071362;28;20039;-67
2023/06/06 04:14:32;;;;;;;5.43;3.63;;;;;;;22.06;40.60;101975.84;5071097;28;20028;-65
2023/06/06 04:16:57;;;;;;;5.70;3.50;;;;;;;22.05;40.90;101982.09;5071055;28;20082;-67
2023/06/06 04:19:22;;;;;;;5.73;3.40;;;;;;;22.06;40.67;101982.94;5071390;28;20879;-64
2023/06/06 04:21:48;;;;;;;6.27;3.50;;;;;;;22.06;40.64;101985.59;5070379;28;20349;-66
2023/06/06 04:24:13;;;;;;;6.90;4.05;;;;;;;22.05;40.78;101984.75;5071630;28;20268;-64
2023/06/06 04:26:38;;;;;;;7.32;3.80;;;;;;;22.04;40.59;101982.22;5070317;28;20029;-67
2023/06/06 04:29:04;;;;;;;7.13;4.80;;;;;;;22.03;40.38;101981.38;5071297;28;20041;-66
2023/06/06 04:31:29;;;;;;;6.72;3.92;;;;;;;22.02;40.51;101979.69;5070840;28;21416;-65
2023/06/06 04:34:00;;;;;;;7.37;3.73;;;;;;;22.04;40.72;101988.38;5070549;28;20040;-66
2023/06/06 04:36:26;;;;;;;6.57;3.72;;;;;;;22.02;40.52;101985.00;5071170;28;20272;-66
2023/06/06 04:39:00;;;;;;;6.40;3.72;;;;;;;22.05;40.84;101994.53;5070853;28;20050;-66
2023/06/06 04:41:25;;;;;;;6.22;3.58;;;;;;;22.02;40.53;101995.63;5070724;28;20020;-65
2023/06/06 04:43:51;;;;;;;7.10;3.85;;;;;;;22.02;40.79;101992.13;5071081;28;20873;-65
2023/06/06 04:46:21;;;;;;;7.25;4.07;;;;;;;22.03;40.60;101988.47;5070913;28;20377;-65
2023/06/06 04:48:53;;;;;;;7.25;3.90;;;;;;;22.00;40.63;101981.63;5070973;28;20031;-66
2023/06/06 04:51:29;;;;;;;5.43;3.65;;;;;;;22.00;40.71;101986.06;5071037;28;20024;-66
2023/06/06 04:54:08;;;;;;;5.38;3.33;;;;;;;21.99;40.67;101979.09;5071165;28;20039;-65
2023/06/06 04:56:34;;;;;;;6.22;3.78;;;;;;;22.01;40.39;101980.63;5071036;28;20052;-65
2023/06/06 04:59:06;;;;;;;5.70;3.50;;;;;;;22.00;40.47;101981.63;5074479;28;20068;-65
2023/06/06 05:01:36;;;;;;;5.53;3.55;;;;;;;21.96;40.60;101980.19;5074173;28;20032;-65
2023/06/06 05:04:05;;;;;;;5.90;3.78;;;;;;;21.99;40.66;101984.41;5074381;28;20046;-65
2023/06/06 05:06:31;;;;;;;5.40;3.40;;;;;;;21.99;40.54;101979.94;5073798;28;20036;-65
2023/06/06 05:09:04;;;;;;;6.05;3.70;;;;;;;21.96;40.95;101977.53;5074350;28;20036;-65
2023/06/06 05:11:30;;;;;;;6.13;4.00;;;;;;;21.98;40.96;101980.06;5074016;28;20040;-65
2023/06/06 05:13:56;;;;;;;6.38;3.70;;;;;;;21.96;40.71;101980.19;5074685;28;20059;-66
2023/06/06 05:16:21;;;;;;;6.60;3.97;;;;;;;21.96;40.57;101987.31;5073706;28;20412;-65
2023/06/06 05:18:47;;;;;;;5.70;3.90;;;;;;;21.98;40.68;101988.00;5074106;28;20040;-65
2023/06/06 05:21:13;;;;;;;6.22;3.47;;;;;;;21.98;40.60;101991.50;5073839;28;20031;-65
2023/06/06 05:23:39;;;;;;;5.70;3.72;;;;;;;21.96;40.97;101987.31;5074205;28;20028;-65
2023/06/06 05:26:04;;;;;;;6.00;3.53;;;;;;;21.95;40.85;101994.41;5074022;28;20377;-67
2023/06/06 05:28:29;;;;;;;6.10;3.97;;;;;;;21.96;40.90;101992.59;5074001;28;20805;-66
2023/06/06 05:30:58;;;;;;;5.55;3.47;;;;;;;21.95;40.91;101980.28;5074187;28;20035;-66
2023/06/06 05:33:27;;;;;;;5.90;3.45;;;;;;;21.98;40.68;101990.66;5073925;28;20036;-65
2023/06/06 05:35:55;;;;;;;6.38;3.80;;;;;;;21.92;40.93;101981.38;5047250;28;20032;-64
2023/06/06 05:38:21;;;;;;;7.38;3.72;;;;;;;21.96;40.85;101989.97;5073357;28;20107;-65
2023/06/06 05:40:46;;;;;;;5.70;3.90;;;;;;;21.94;40.87;101990.06;5073403;28;20169;-65
2023/06/06 05:43:14;;;;;;;7.35;3.78;;;;;;;21.95;40.82;102001.53;5074157;28;20024;-67
2023/06/06 05:45:39;;;;;;;7.28;3.88;;;;;;;21.97;40.87;101995.16;5074114;28;20029;-65
2023/06/06 05:48:04;;;;;;;5.65;3.38;;;;;;;21.95;40.84;102001.53;5073357;28;20042;-65
2023/06/06 05:50:30;;;;;;;5.70;3.60;;;;;;;21.98;40.68;102009.25;5073817;28;20089;-65
2023/06/06 05:52:56;;;;;;;5.72;3.95;;;;;;;21.95;40.98;102001.53;5073855;28;20388;-66
2023/06/06 05:55:32;;;;;;;7.07;4.32;;;;;;;21.95;40.72;102002.38;5072701;28;20035;-65
2023/06/06 05:57:58;;;;;;;6.63;4.20;;;;;;;21.96;40.75;102001.41;5073607;28;20041;-66
2023/06/06 06:00:25;;;;;;;5.95;3.60;;;;;;;21.95;41.00;101996.22;5073300;28;20514;-66
2023/06/06 06:02:51;;;;;;;6.32;3.50;;;;;;;21.95;40.92;101996.22;5073150;28;20088;-66
2023/06/06 06:05:19;;;;;;;6.25;3.72;;;;;;;21.92;41.19;102002.59;5073169;28;20057;-65
2023/06/06 06:07:47;;;;;;;5.95;3.70;;;;;;;21.92;41.21;101997.28;5072431;28;20039;-67
2023/06/06 06:10:13;;;;;;;6.75;3.50;;;;;;;21.90;41.29;101985.97;5072737;28;20024;-66
2023/06/06 06:12:38;;;;;;;5.53;3.42;;;;;;;21.95;41.09;101994.41;5073353;28;20040;-64
2023/06/06 06:15:04;;;;;;;6.00;3.60;;;;;;;21.98;41.59;102006.59;5073241;28;20197;-65
2023/06/06 06:17:30;;;;;;;7.22;4.38;;;;;;;22.00;41.44;102000.22;5073126;28;20081;-64
2023/06/06 06:19:55;;;;;;;6.55;3.80;;;;;;;21.99;41.55;102006.47;5073428;28;20115;-65
2023/06/06 06:22:21;;;;;;;7.82;3.83;;;;;;;21.99;41.71;101998.50;5073028;28;20043;-65
2023/06/06 06:24:46;;;;;;;6.18;4.05;;;;;;;21.98;41.53;102003.94;5072368;28;20043;-66
2023/06/06 06:27:11;;;;;;;5.82;3.95;;;;;;;22.00;41.96;102005.53;5073184;28;20118;-66
2023/06/06 06:29:36;;;;;;;6.57;3.83;;;;;;;21.97;42.15;102008.41;5072730;28;20070;-64
2023/06/06 06:32:02;;;;;;;6.93;4.37;;;;;;;21.97;42.24;102011.06;5072316;28;20036;-67
2023/06/06 06:34:27;;;;;;;7.35;4.07;;;;;;;21.99;42.41;102014.44;5072578;28;20264;-64
2023/06/06 06:36:53;;;;;;;6.57;4.18;;;;;;;21.98;42.08;102004.78;5073171;28;21174;-66
2023/06/06 06:39:19;;;;;;;6.23;3.90;;;;;;;21.98;41.84;102004.78;5072357;28;20063;-66
2023/06/06 06:41:47;;;;;;;6.55;4.13;;;;;;;22.00;42.29;102009.97;5071721;28;20629;-67
2023/06/06 06:44:13;;;;;;;6.35;4.20;;;;;;;22.03;42.19;102007.06;5072023;28;20118;-66
2023/06/06 06:46:38;;;;;;;6.18;3.92;;;;;;;22.00;42.19;102013.47;5072772;28;20103;-63
2023/06/06 06:49:13;;;;;;;6.40;3.90;;;;;;;21.99;42.13;102009.13;5072226;28;20036;-66
2023/06/06 06:51:40;;;;;;;8.65;4.65;;;;;;;22.01;42.62;102011.66;5071413;28;20101;-65
2023/06/06 06:54:05;;;;;;;10.60;4.30;;;;;;;22.04;42.56;102019.38;5071497;28;20024;-66
2023/06/06 06:56:31;;;;;;;5.45;3.78;;;;;;;22.03;42.61;102018.56;5072073;28;20035;-67
2023/06/06 06:58:57;;;;;;;7.88;4.03;;;;;;;22.06;42.61;102022.75;5072123;28;20036;-66
2023/06/06 07:01:27;;;;;;;5.78;4.13;;;;;;;22.03;42.82;102018.56;5071534;28;20063;-66
2023/06/06 07:03:52;;;;;;;5.97;4.18;;;;;;;22.07;42.68;102019.97;5072089;28;20482;-66
2023/06/06 07:06:18;;;;;;;7.43;4.20;;;;;;;22.07;42.50;102021.78;5071093;28;20075;-65
2023/06/06 07:08:44;;;;;;;6.05;3.92;;;;;;;22.07;42.92;102016.47;5072081;28;20035;-66
2023/06/06 07:11:10;;;;;;;7.70;3.67;;;;;;;22.07;42.92;102019.13;5071548;28;20038;-68
2023/06/06 07:13:36;;;;;;;6.55;4.13;;;;;;;22.07;42.93;102006.69;5072284;28;20028;-69
2023/06/06 07:16:01;;;;;;;7.07;4.25;;;;;;;22.08;42.71;102016.38;5070029;28;20056;-66
2023/06/06 07:18:26;;;;;;;7.70;4.00;;;;;;;22.09;42.63;102012.72;5071020;28;20105;-66
2023/06/06 07:20:51;;;;;;;6.83;3.80;;;;;;;22.12;42.88;102016.94;5071405;28;20038;-67
2023/06/06 07:23:17;;;;;;;5.90;3.88;;;;;;;22.09;42.48;102011.88;5070335;28;21055;-65
2023/06/06 07:25:42;;;;;;;7.78;4.47;;;;;;;22.09;42.44;102009.22;5069629;28;20024;-65
2023/06/06 07:28:10;;;;;;;6.03;3.85;;;;;;;22.10;42.63;102018.91;5070120;28;20028;-65
2023/06/06 07:30:35;;;;;;;5.88;3.75;;;;;;;22.09;42.50;102010.06;5070810;28;20032;-66
2023/06/06 07:33:00;;;;;;;6.38;4.20;;;;;;;22.09;42.70;102012.72;5070509;28;20032;-68
2023/06/06 07:35:32;;;;;;;7.97;4.20;;;;;;;22.07;42.66;102017.31;5071609;28;20129;-64
2023/06/06 07:37:57;;;;;;;6.00;3.90;;;;;;;22.04;42.84;102009.59;5054202;28;20111;-67
2023/06/06 07:40:22;;;;;;;8.30;4.63;;;;;;;22.07;42.54;102000.56;5070718;28;20127;-68
2023/06/06 07:42:48;;;;;;;5.90;3.80;;;;;;;22.11;42.86;102004.63;5069741;28;20032;-67
2023/06/06 07:45:13;;;;;;;6.07;3.60;;;;;;;22.11;42.60;102001.97;5070740;28;20078;-67
2023/06/06 07:47:40;;;;;;;7.63;4.43;;;;;;;22.12;42.77;102001.03;5070302;28;20131;-69
2023/06/06 07:50:06;;;;;;;6.30;4.30;;;;;;;22.10;42.55;101992.34;5069495;28;20031;-67
2023/06/06 07:52:32;;;;;;;6.70;4.18;;;;;;;22.15;42.61;101998.13;5069238;28;20043;-65
2023/06/06 07:54:58;;;;;;;6.93;3.88;;;;;;;22.21;42.33;101991.50;5070841;28;20043;-66
2023/06/06 07:57:25;;;;;;;8.00;4.00;;;;;;;22.19;42.69;101986.31;5070682;28;20036;-66
2023/06/06 07:59:53;;;;;;;6.05;3.88;;;;;;;22.17;42.64;101993.53;5070209;28;20502;-66
2023/06/06 08:02:19;;;;;;;6.22;4.10;;;;;;;22.19;42.53;101993.41;5070529;28;20039;-65
2023/06/06 08:04:45;;;;;;;7.43;4.03;;;;;;;22.20;42.98;101990.63;5070165;28;20077;-65
2023/06/06 08:07:12;;;;;;;7.53;3.90;;;;;;;22.22;42.42;101987.84;5070242;28;20036;-66
2023/06/06 08:09:37;;;;;;;7.97;4.40;;;;;;;22.25;42.69;101987.59;5070063;28;20119;-67
2023/06/06 08:12:05;;;;;;;6.75;4.20;;;;;;;22.26;42.51;101991.94;5069938;28;20143;-66
2023/06/06 08:14:31;;;;;;;9.50;3.92;;;;;;;22.26;42.84;101991.94;5070549;28;20103;-65
2023/06/06 08:16:57;;;;;;;6.80;4.30;;;;;;;22.25;42.56;101993.75;5070100;28;20035;-65
2023/06/06 08:19:23;;;;;;;8.00;4.30;;;;;;;22.29;42.58;101997.00;5069948;28;20092;-64
2023/06/06 08:21:48;;;;;;;7.03;4.15;;;;;;;22.29;42.70;102002.34;5069206;28;20953;-66
2023/06/06 08:24:13;;;;;;;6.17;3.77;;;;;;;22.26;42.46;101992.78;5070726;28;20480;-66
2023/06/06 08:26:39;;;;;;;6.63;4.22;;;;;;;22.29;42.66;101994.38;5069919;28;20262;-66
2023/06/06 08:29:04;;;;;;;6.78;4.28;;;;;;;22.28;42.58;101992.66;5069290;28;20063;-66
2023/06/06 08:31:30;;;;;;;6.63;3.97;;;;;;;22.35;42.42;101990.38;5072073;28;20453;-67
2023/06/06 08:33:56;;;;;;;7.25;3.55;;;;;;;22.36;42.44;101984.94;5074117;28;20269;-66
2023/06/06 08:36:21;;;;;;;5.60;3.85;;;;;;;22.34;42.78;101981.59;5073347;28;20035;-65
2023/06/06 08:38:47;;;;;;;7.28;3.88;;;;;;;22.37;42.53;101989.28;5073913;28;20033;-66
2023/06/06 08:41:14;;;;;;;7.22;3.50;;;;;;;22.38;42.59;101983.03;5073618;28;20061;-68
2023/06/06 08:43:39;;;;;;;6.07;4.10;;;;;;;22.42;42.66;101988.94;5074520;28;20057;-66
2023/06/06 08:46:05;;;;;;;5.75;3.50;;;;;;;22.45;42.41;101980.72;5074122;28;20032;-67
2023/06/06 08:48:33;;;;;;;7.80;4.03;;;;;;;22.44;42.75;101984.31;5074151;28;20446;-66
2023/06/06 08:51:01;;;;;;;7.72;4.00;;;;;;;22.42;42.56;101983.63;5074447;28;20108;-66
2023/06/06 08:53:27;;;;;;;6.75;3.85;;;;;;;22.43;42.69;101987.94;5073468;28;20032;-66
2023/06/06 08:55:57;;;;;;;5.68;3.60;;;;;;;22.43;42.39;101987.94;5073948;28;20032;-65
2023/06/06 08:58:22;;;;;;;6.95;3.55;;;;;;;22.47;42.09;101989.38;5073803;28;20040;-63
2023/06/06 09:00:51;;;;;;;7.35;3.83;;;;;;;22.48;42.65;101990.22;5073513;28;20396;-65
2023/06/06 09:03:20;;;;;;;5.82;3.45;;;;;;;22.49;42.12;101978.63;5073575;28;20062;-66
2023/06/06 09:05:47;;;;;;;6.57;3.28;;;;;;;22.46;42.15;101980.59;5073802;28;20064;-64
2023/06/06 09:08:12;;;;;;;6.40;3.55;;;;;;;22.44;42.55;101979.84;5073765;28;20465;-64
2023/06/06 09:10:37;;;;;;;6.55;3.75;;;;;;;22.46;42.22;101977.94;5073442;28;20052;-65
2023/06/06 09:13:03;;;;;;;6.30;3.45;;;;;;;22.45;42.29;101986.03;5073336;28;20044;-64
2023/06/06 09:15:28;;;;;;;6.60;3.78;;;;;;;22.45;42.56;101978.06;5072946;28;20098;-64
2023/06/06 09:17:54;;;;;;;6.82;3.67;;;;;;;22.41;42.63;101974.81;5073460;28;20035;-64
2023/06/06 09:20:21;;;;;;;7.57;4.13;;;;;;;22.43;42.82;101977.31;5073432;28;20062;-65
2023/06/06 09:22:48;;;;;;;6.38;3.70;;;;;;;22.43;42.65;101972.88;5073030;28;20028;-63
2023/06/06 09:25:18;;;;;;;4.97;3.25;;;;;;;22.46;42.87;101980.59;5073633;28;20036;-65
2023/06/06 09:27:44;;;;;;;5.47;3.33;;;;;;;22.52;42.61;101970.41;5073908;28;20483;-66
2023/06/06 09:30:32;;;;;;;5.85;3.70;;;;;;;22.48;42.75;101967.19;5072625;28;20019;-67
2023/06/06 09:33:01;;;;;;;5.85;3.70;;;;;;;22.51;42.66;101963.41;5072728;28;20036;-68
2023/06/06 09:35:34;;;;;;;5.93;3.53;;;;;;;22.51;42.78;101966.06;5073185;28;20039;-65
2023/06/06 09:38:06;;;;;;;6.57;3.40;;;;;;;22.55;42.69;101970.16;5079855;28;20027;-65
2023/06/06 09:40:33;;;;;;;8.50;4.03;;;;;;;22.54;42.66;101966.66;5074269;28;20039;-67
2023/06/06 09:42:58;;;;;;;8.23;4.28;;;;;;;22.56;42.42;101964.72;5073210;28;20256;-67
2023/06/06 09:45:24;;;;;;;6.75;4.30;;;;;;;22.62;42.54;101968.66;5073812;28;20727;-67
2023/06/06 09:47:50;;;;;;;6.30;3.47;;;;;;;22.63;42.51;101976.50;5072489;28;20482;-67
2023/06/06 09:50:17;;;;;;;9.10;3.80;;;;;;;22.61;42.44;101964.34;5073149;28;20040;-66
2023/06/06 09:52:43;;;;;;;5.70;3.28;;;;;;;22.59;42.55;101966.28;5072448;28;20132;-64
2023/06/06 09:55:17;;;;;;;6.38;3.08;;;;;;;22.58;42.41;101957.47;5072278;28;20145;-67
2023/06/06 09:57:43;;;;;;;;;;;;;;;22.64;42.29;101966.75;5073297;28;20147;-63
2023/06/06 10:00:12;;;;;;;5.32;3.30;;;;;;;22.62;42.24;101960.69;5073052;28;19916;-66
2023/06/06 10:02:43;;;;;;;6.32;3.22;;;;;;;22.58;42.68;101960.13;5072312;28;20087;-64
2023/06/06 10:05:11;;;;;;;5.50;3.42;;;;;;;22.56;42.43;101956.75;5072213;28;20044;-65
2023/06/06 10:07:44;;;;;;;7.00;3.53;;;;;;;22.60;42.55;101952.84;5071956;28;20043;-64
2023/06/06 10:10:14;;;;;;;6.57;3.58;;;;;;;22.61;42.28;101956.38;5072485;28;20039;-64
2023/06/06 10:12:40;;;;;;;9.30;3.72;;;;;;;22.59;42.59;101947.69;5070964;28;20046;-63
2023/06/06 10:15:08;;;;;;;6.72;3.63;;;;;;;22.61;42.56;101954.56;5072261;28;20052;-63
2023/06/06 10:17:39;;;;;;;5.32;3.65;;;;;;;22.58;42.61;101948.66;5073249;28;20060;-63
2023/06/06 10:20:06;;;;;;;6.85;3.20;;;;;;;22.55;42.99;101949.75;5070506;28;20480;-65
2023/06/06 10:22:35;;;;;;;5.18;3.00;;;;;;;22.52;42.87;101942.03;5071821;28;20024;-66
2023/06/06 10:25:06;;;;;;;8.70;3.28;;;;;;;22.53;42.63;101946.38;5071607;28;20052;-66
2023/06/06 10:28:00;;;;;;;5.78;3.38;;;;;;;22.51;42.81;101948.34;5072273;28;20039;-65
2023/06/06 10:30:34;;;;;;;5.87;3.80;;;;;;;22.57;42.65;101950.47;5071974;28;20113;-65
2023/06/06 10:33:24;;;;;;;7.38;3.35;;;;;;;22.58;42.90;101949.50;5071782;28;20028;-66
2023/06/06 10:35:56;;;;;;;5.68;3.55;;;;;;;22.60;42.55;101942.22;5071887;28;20090;-65
2023/06/06 10:38:21;;;;;;;6.43;3.08;;;;;;;22.60;42.90;101938.75;5072160;28;20028;-64
2023/06/06 10:40:58;;;;;;;5.55;3.25;;;;;;;22.61;42.67;101943.09;5069398;28;20093;-65
2023/06/06 10:43:32;;;;;;;17.15;4.03;;;;;;;22.66;42.75;101951.50;5070974;28;20105;-65
2023/06/06 10:45:57;;;;;;;6.00;2.75;;;;;;;22.69;42.68;101937.97;5070684;28;20028;-66
2023/06/06 10:48:41;;;;;;;5.20;3.08;;;;;;;22.71;43.00;101949.31;5070919;28;20100;-65
2023/06/06 10:51:21;;;;;;;6.30;3.38;;;;;;;22.75;42.68;101942.78;5071257;28;21147;-67
2023/06/06 10:53:46;;;;;;;6.63;3.15;;;;;;;22.77;42.88;101935.50;5070127;28;20210;-66
2023/06/06 10:56:30;;;;;;;5.17;3.17;;;;;;;22.77;42.71;101937.34;5069301;28;20422;-65
2023/06/06 10:58:56;;;;;;;5.18;3.05;;;;;;;22.82;42.86;101935.97;5071227;28;20343;-65
2023/06/06 11:01:22;;;;;;;5.43;3.13;;;;;;;22.81;42.81;101931.63;5069192;28;20036;-65
2023/06/06 11:03:47;;;;;;;6.63;3.10;;;;;;;22.85;42.50;101924.25;5070243;28;20618;-65
2023/06/06 11:06:19;;;;;;;6.38;3.10;;;;;;;22.81;43.15;101926.31;5070698;28;20123;-65
2023/06/06 11:08:48;;;;;;;5.28;3.10;;;;;;;22.87;42.78;101926.75;5071286;28;21140;-66
2023/06/06 11:11:20;;;;;;;6.57;3.25;;;;;;;22.88;43.23;101928.47;5070638;28;20032;-68
2023/06/06 11:14:06;;;;;;;6.18;3.40;;;;;;;22.82;43.53;101924.50;5070297;28;20116;-66
2023/06/06 11:16:37;;;;;;;5.05;2.83;;;;;;;22.77;43.69;101918.72;5069189;28;20056;-67
2023/06/06 11:19:09;;;;;;;6.47;3.20;;;;;;;22.76;43.48;101920.53;5071522;28;20032;-68
2023/06/06 11:21:36;;;;;;;5.93;3.78;;;;;;;22.73;43.52;101917.28;5070102;28;20047;-66
2023/06/06 11:24:05;;;;;;;6.38;3.17;;;;;;;22.66;43.80;101916.97;5071298;28;20032;-66
2023/06/06 11:26:35;;;;;;;6.38;3.47;;;;;;;22.64;44.39;101919.75;5070989;28;20052;-65
2023/06/06 11:29:01;;;;;;;8.45;3.80;;;;;;;22.62;44.27;101912.88;5070464;28;20028;-65